Time;durP1;ratioP1;P1;durP2;ratioP2;P2;SDS_P1;SDS_P2;PMS_P1;PMS_P2;Temp;Humidity;BMP_temperature;BMP_pressure;BME280_temperature;BME280_humidity;BME280_pressure;Samples;Min_cycle;Max_cycle;Signal;HPM_P1;HPM_P2
2022/10/13 00:00:26;;;;;;;17.87;11.23;;;;;;;;;;5030371;28;20271;-80
2022/10/13 00:02:51;;;;;;;15.57;11.17;;;;;;;;;;5029012;28;20183;-79
2022/10/13 00:05:17;;;;;;;14.23;11.37;;;;;;;;;;5029451;28;20249;-80
2022/10/13 00:07:42;;;;;;;14.13;11.33;;;;;;;;;;5039412;28;20183;-80
2022/10/13 00:10:07;;;;;;;13.20;9.93;;;;;;;;;;5024363;28;20174;-80
2022/10/13 00:12:33;;;;;;;18.87;11.30;;;;;;;;;;5030492;28;20175;-80
2022/10/13 00:14:59;;;;;;;15.27;9.60;;;;;;;;;;5025793;28;20183;-79
2022/10/13 00:17:24;;;;;;;14.63;10.03;;;;;;;;;;5030498;28;20268;-80
2022/10/13 00:19:49;;;;;;;13.90;10.33;;;;;;;;;;5039012;28;20172;-80
2022/10/13 00:22:14;;;;;;;12.47;10.20;;;;;;;;;;5021708;28;20216;-79
2022/10/13 00:24:39;;;;;;;16.40;10.23;;;;;;;;;;5029298;28;20176;-80
2022/10/13 00:27:05;;;;;;;12.03;10.40;;;;;;;;;;5029639;28;20478;-80
2022/10/13 00:29:30;;;;;;;15.13;9.43;;;;;;;;;;5032656;28;20202;-79
2022/10/13 00:31:55;;;;;;;15.40;9.93;;;;;;;;;;5029422;28;20198;-80
2022/10/13 00:34:20;;;;;;;14.17;9.53;;;;;;;;;;5021382;28;20196;-80
2022/10/13 00:36:45;;;;;;;13.83;10.07;;;;;;;;;;5026309;28;20173;-80
2022/10/13 00:39:11;;;;;;;14.70;9.70;;;;;;;;;;5032954;28;20214;-80
2022/10/13 00:41:39;;;;;;;15.33;9.90;;;;;;;;;;5031438;28;20175;-80
2022/10/13 00:44:05;;;;;;;15.07;10.17;;;;;;;;;;5026726;28;20195;-80
2022/10/13 00:46:32;;;;;;;13.87;10.33;;;;;;;;;;5025027;28;20196;-80
2022/10/13 00:49:06;;;;;;;16.40;9.97;;;;;;;;;;5030713;28;20268;-80
2022/10/13 00:51:33;;;;;;;14.40;10.47;;;;;;;;;;5007194;28;20265;-80
2022/10/13 00:53:59;;;;;;;13.53;10.40;;;;;;;;;;5013344;28;20181;-80
2022/10/13 00:56:25;;;;;;;14.43;11.40;;;;;;;;;;5014225;28;20181;-80
2022/10/13 00:58:50;;;;;;;14.67;10.73;;;;;;;;;;5013186;28;20180;-80
2022/10/13 01:01:16;;;;;;;14.30;10.57;;;;;;;;;;5014409;28;20195;-80
2022/10/13 01:03:41;;;;;;;12.03;10.37;;;;;;;;;;5014414;28;20185;-80
2022/10/13 01:06:07;;;;;;;15.20;10.30;;;;;;;;;;5015331;28;20190;-80
2022/10/13 01:08:33;;;;;;;13.57;10.13;;;;;;;;;;5024652;28;20203;-80
2022/10/13 01:11:04;;;;;;;15.87;11.07;;;;;;;;;;5014017;28;20202;-80
2022/10/13 01:13:48;;;;;;;15.77;10.73;;;;;;;;;;5006288;28;20189;-80
2022/10/13 01:16:13;;;;;;;13.77;9.50;;;;;;;;;;5032819;28;20191;-80
2022/10/13 01:18:41;;;;;;;16.93;11.23;;;;;;;;;;5028428;28;20184;-80
2022/10/13 01:21:15;;;;;;;17.17;10.90;;;;;;;;;;5030993;28;20248;-80
2022/10/13 01:23:57;;;;;;;15.63;9.43;;;;;;;;;;5030432;28;20240;-80
2022/10/13 01:26:32;;;;;;;15.67;10.93;;;;;;;;;;5008872;28;20193;-81
2022/10/13 01:29:16;;;;;;;15.83;10.47;;;;;;;;;;5010707;28;20353;-81
2022/10/13 01:31:45;;;;;;;16.47;11.17;;;;;;;;;;5006807;28;20189;-80
2022/10/13 01:34:24;;;;;;;21.30;10.23;;;;;;;;;;5012205;28;20430;-80
2022/10/13 01:36:55;;;;;;;17.40;10.67;;;;;;;;;;5013798;28;20175;-80
2022/10/13 01:39:32;;;;;;;16.07;9.47;;;;;;;;;;5021125;28;20188;-80
2022/10/13 01:42:01;;;;;;;16.93;9.97;;;;;;;;;;5012605;28;20183;-81
2022/10/13 01:44:31;;;;;;;15.57;10.03;;;;;;;;;;5012602;28;20237;-80
2022/10/13 01:46:57;;;;;;;16.33;9.73;;;;;;;;;;5013681;28;20203;-80
2022/10/13 01:49:25;;;;;;;12.97;9.13;;;;;;;;;;5013798;28;20243;-80
2022/10/13 01:51:53;;;;;;;12.40;9.83;;;;;;;;;;5012362;28;20180;-79
2022/10/13 01:54:18;;;;;;;13.77;8.17;;;;;;;;;;5028084;28;20181;-80
2022/10/13 01:56:50;;;;;;;15.50;8.77;;;;;;;;;;5010067;28;20322;-81
2022/10/13 01:59:16;;;;;;;11.07;7.90;;;;;;;;;;5013251;28;20180;-80
2022/10/13 02:01:41;;;;;;;13.07;8.93;;;;;;;;;;5015100;28;20180;-80
2022/10/13 02:04:30;;;;;;;12.63;7.93;;;;;;;;;;5012807;28;20184;-80
2022/10/13 02:07:21;;;;;;;10.30;8.33;;;;;;;;;;5011409;28;20194;-80
2022/10/13 02:10:05;;;;;;;13.00;9.00;;;;;;;;;;5008819;28;20213;-81
2022/10/13 02:12:38;;;;;;;9.47;7.43;;;;;;;;;;5010525;28;20179;-80
2022/10/13 02:15:06;;;;;;;12.87;9.67;;;;;;;;;;5013931;28;20188;-79
2022/10/13 02:17:31;;;;;;;10.40;7.57;;;;;;;;;;5012884;28;20176;-81
2022/10/13 02:19:57;;;;;;;13.33;7.10;;;;;;;;;;5014128;28;20412;-80
2022/10/13 02:22:26;;;;;;;12.03;8.40;;;;;;;;;;5008490;28;20181;-80
2022/10/13 02:24:51;;;;;;;11.17;7.80;;;;;;;;;;5011455;28;20233;-80
2022/10/13 02:27:16;;;;;;;11.77;8.20;;;;;;;;;;5012021;28;20183;-81
2022/10/13 02:29:49;;;;;;;13.17;8.87;;;;;;;;;;5005353;28;20209;-79
2022/10/13 02:32:14;;;;;;;10.07;7.67;;;;;;;;;;5014703;28;20183;-80
2022/10/13 02:34:39;;;;;;;12.97;8.80;;;;;;;;;;5013099;28;20176;-80
2022/10/13 02:37:05;;;;;;;14.60;8.17;;;;;;;;;;5012071;28;20181;-80
2022/10/13 02:39:30;;;;;;;8.97;7.77;;;;;;;;;;5012797;28;20184;-80
2022/10/13 02:41:55;;;;;;;10.73;7.57;;;;;;;;;;5013180;28;20200;-80
2022/10/13 02:44:20;;;;;;;12.47;8.20;;;;;;;;;;5013112;28;20232;-80
2022/10/13 02:46:45;;;;;;;12.17;8.63;;;;;;;;;;5015679;28;20439;-80
2022/10/13 02:49:11;;;;;;;13.17;9.40;;;;;;;;;;5015976;28;20211;-81
2022/10/13 02:51:36;;;;;;;16.67;9.80;;;;;;;;;;5036625;28;20187;-80
2022/10/13 02:54:01;;;;;;;15.03;10.90;;;;;;;;;;5012499;28;20275;-81
2022/10/13 02:56:26;;;;;;;14.10;10.83;;;;;;;;;;5008366;28;20193;-79
2022/10/13 02:58:52;;;;;;;14.73;10.00;;;;;;;;;;5007306;28;20179;-80
2022/10/13 03:01:17;;;;;;;16.37;12.37;;;;;;;;;;5023227;28;20189;-80
2022/10/13 03:03:43;;;;;;;17.20;11.00;;;;;;;;;;5014929;28;20185;-80
2022/10/13 03:06:08;;;;;;;16.43;10.40;;;;;;;;;;5013254;28;20183;-79
2022/10/13 03:08:34;;;;;;;13.97;10.00;;;;;;;;;;5015811;28;20206;-79
2022/10/13 03:10:59;;;;;;;16.70;11.43;;;;;;;;;;5014073;28;20226;-80
2022/10/13 03:13:24;;;;;;;16.03;10.80;;;;;;;;;;5015381;28;20383;-80
2022/10/13 03:15:50;;;;;;;14.03;10.60;;;;;;;;;;5014148;28;20176;-80
2022/10/13 03:18:15;;;;;;;10.60;8.53;;;;;;;;;;5011537;28;20188;-81
2022/10/13 03:20:40;;;;;;;12.97;10.70;;;;;;;;;;5020552;28;20187;-80
2022/10/13 03:23:05;;;;;;;14.33;9.00;;;;;;;;;;5014963;28;20179;-80
2022/10/13 03:25:31;;;;;;;13.40;8.30;;;;;;;;;;5014510;28;20198;-80
2022/10/13 03:27:56;;;;;;;11.60;9.20;;;;;;;;;;5018198;28;20209;-79
2022/10/13 03:30:22;;;;;;;10.27;7.77;;;;;;;;;;5016451;28;20203;-80
2022/10/13 03:32:47;;;;;;;11.67;8.30;;;;;;;;;;5011993;28;20221;-80
2022/10/13 03:35:12;;;;;;;12.97;9.03;;;;;;;;;;5010984;28;20265;-80
2022/10/13 03:37:37;;;;;;;10.20;8.30;;;;;;;;;;5014206;28;20293;-81
2022/10/13 03:40:03;;;;;;;10.47;8.20;;;;;;;;;;5012446;28;20227;-80
2022/10/13 03:42:28;;;;;;;13.00;9.67;;;;;;;;;;5011202;28;20175;-80
2022/10/13 03:44:53;;;;;;;13.33;9.40;;;;;;;;;;5014027;28;20169;-80
2022/10/13 03:47:19;;;;;;;14.07;8.20;;;;;;;;;;5016569;28;20197;-79
2022/10/13 03:49:44;;;;;;;9.10;7.47;;;;;;;;;;5009125;28;20236;-80
2022/10/13 03:52:09;;;;;;;9.47;7.93;;;;;;;;;;5009271;28;20197;-80
2022/10/13 03:54:34;;;;;;;12.00;7.93;;;;;;;;;;5007592;28;20180;-80
2022/10/13 03:56:59;;;;;;;13.07;8.40;;;;;;;;;;4995907;28;20231;-80
2022/10/13 03:59:26;;;;;;;10.17;8.10;;;;;;;;;;4999565;28;20198;-80
2022/10/13 04:01:51;;;;;;;11.27;8.23;;;;;;;;;;5001257;28;20180;-80
2022/10/13 04:04:16;;;;;;;12.37;8.70;;;;;;;;;;4997873;28;20178;-80
2022/10/13 04:06:41;;;;;;;17.33;9.73;;;;;;;;;;4995337;28;20280;-80
2022/10/13 04:09:07;;;;;;;18.37;11.13;;;;;;;;;;5007629;28;20209;-80
2022/10/13 04:11:32;;;;;;;13.50;9.87;;;;;;;;;;5010591;28;20202;-80
2022/10/13 04:13:58;;;;;;;17.30;10.30;;;;;;;;;;4992837;28;20352;-80
2022/10/13 04:16:24;;;;;;;16.73;11.07;;;;;;;;;;5002282;28;20193;-80
2022/10/13 04:18:54;;;;;;;18.30;11.73;;;;;;;;;;5006752;28;20258;-80
2022/10/13 04:21:20;;;;;;;14.13;11.03;;;;;;;;;;4996515;28;20216;-80
2022/10/13 04:23:45;;;;;;;14.63;10.73;;;;;;;;;;4993310;28;20213;-80
2022/10/13 04:26:15;;;;;;;15.60;10.77;;;;;;;;;;4992152;28;20180;-80
2022/10/13 04:28:40;;;;;;;18.23;11.23;;;;;;;;;;4990246;28;20207;-80
2022/10/13 04:31:05;;;;;;;17.30;12.77;;;;;;;;;;5007412;28;20168;-80
2022/10/13 04:33:30;;;;;;;17.60;11.33;;;;;;;;;;4995373;28;20201;-80
2022/10/13 04:35:56;;;;;;;18.93;9.93;;;;;;;;;;4994099;28;20202;-80
2022/10/13 04:38:21;;;;;;;13.17;10.70;;;;;;;;;;5014769;28;20207;-80
2022/10/13 04:40:46;;;;;;;17.50;11.50;;;;;;;;;;4990747;28;20419;-80
2022/10/13 04:43:11;;;;;;;16.03;10.83;;;;;;;;;;4993454;28;20192;-81
2022/10/13 04:45:37;;;;;;;14.00;10.53;;;;;;;;;;4990571;28;20178;-80
2022/10/13 04:48:02;;;;;;;13.93;11.57;;;;;;;;;;4998630;28;20207;-80
2022/10/13 04:50:28;;;;;;;16.37;11.13;;;;;;;;;;4992274;28;20232;-79
2022/10/13 04:52:53;;;;;;;15.57;11.87;;;;;;;;;;4992459;28;20279;-79
2022/10/13 04:55:18;;;;;;;16.53;10.87;;;;;;;;;;4998913;28;20179;-79
2022/10/13 04:57:43;;;;;;;19.37;13.73;;;;;;;;;;4988277;28;20184;-79
2022/10/13 05:00:09;;;;;;;19.77;13.63;;;;;;;;;;4991416;28;20264;-79
2022/10/13 05:02:34;;;;;;;16.90;13.07;;;;;;;;;;4990930;28;20202;-79
2022/10/13 05:05:00;;;;;;;20.93;12.40;;;;;;;;;;5003976;28;20184;-79
2022/10/13 05:07:25;;;;;;;26.10;13.80;;;;;;;;;;5002334;28;20191;-79
2022/10/13 05:09:50;;;;;;;18.20;12.67;;;;;;;;;;4987852;28;20216;-79
2022/10/13 05:12:16;;;;;;;18.97;13.00;;;;;;;;;;4987483;28;20251;-79
2022/10/13 05:14:41;;;;;;;47.20;33.80;;;;;;;;;;4990964;28;20188;-79
2022/10/13 05:17:06;;;;;;;34.07;25.37;;;;;;;;;;4992724;28;20223;-79
2022/10/13 05:19:31;;;;;;;26.03;15.40;;;;;;;;;;4992576;28;20187;-79
2022/10/13 05:21:56;;;;;;;22.80;13.97;;;;;;;;;;5000511;28;20232;-79
2022/10/13 05:24:29;;;;;;;21.77;13.23;;;;;;;;;;5001738;28;20279;-79
2022/10/13 05:26:55;;;;;;;23.03;15.47;;;;;;;;;;4981808;28;20176;-79
2022/10/13 05:29:20;;;;;;;26.87;15.23;;;;;;;;;;4986271;28;20291;-79
2022/10/13 05:31:45;;;;;;;19.67;13.43;;;;;;;;;;4985389;28;20187;-79
2022/10/13 05:34:11;;;;;;;17.13;13.47;;;;;;;;;;4987844;28;20999;-79
2022/10/13 05:36:36;;;;;;;19.50;13.53;;;;;;;;;;4991524;28;20268;-79
2022/10/13 05:39:03;;;;;;;26.47;13.83;;;;;;;;;;5006629;28;20195;-79
2022/10/13 05:41:29;;;;;;;15.93;12.83;;;;;;;;;;4992137;28;20179;-79
2022/10/13 05:43:58;;;;;;;16.17;12.83;;;;;;;;;;4990844;28;20274;-79
2022/10/13 05:46:23;;;;;;;19.23;13.47;;;;;;;;;;5002129;28;20251;-80
2022/10/13 05:48:49;;;;;;;17.90;13.80;;;;;;;;;;4989026;28;20204;-79
2022/10/13 05:51:24;;;;;;;23.33;18.10;;;;;;;;;;5009625;28;20422;-79
2022/10/13 05:54:02;;;;;;;15.60;11.20;;;;;;;;;;4996290;28;20183;-79
2022/10/13 05:56:30;;;;;;;17.90;11.80;;;;;;;;;;4991174;28;20181;-79
2022/10/13 05:58:59;;;;;;;15.77;10.20;;;;;;;;;;4997148;28;20190;-79
2022/10/13 06:01:26;;;;;;;19.37;13.30;;;;;;;;;;5002155;28;20176;-79
2022/10/13 06:03:54;;;;;;;16.00;12.00;;;;;;;;;;5011355;28;20180;-79
2022/10/13 06:06:19;;;;;;;14.50;11.23;;;;;;;;;;4993106;28;20180;-79
2022/10/13 06:08:44;;;;;;;14.30;10.33;;;;;;;;;;5009710;28;20256;-79
2022/10/13 06:11:09;;;;;;;14.80;9.50;;;;;;;;;;4993128;28;20296;-79
2022/10/13 06:13:35;;;;;;;10.67;8.93;;;;;;;;;;5000802;28;20255;-79
2022/10/13 06:16:00;;;;;;;14.23;9.73;;;;;;;;;;4989932;28;20230;-79
2022/10/13 06:18:25;;;;;;;13.10;10.60;;;;;;;;;;5008289;28;20215;-79
2022/10/13 06:20:51;;;;;;;14.63;9.93;;;;;;;;;;5012938;28;20253;-79
2022/10/13 06:23:16;;;;;;;13.17;9.40;;;;;;;;;;4988319;28;20176;-79
2022/10/13 06:25:48;;;;;;;11.63;10.10;;;;;;;;;;4998858;28;20216;-79
2022/10/13 06:28:13;;;;;;;13.97;10.27;;;;;;;;;;4993217;28;20204;-79
2022/10/13 06:30:38;;;;;;;12.77;11.47;;;;;;;;;;4996727;28;20174;-79
2022/10/13 06:33:04;;;;;;;13.97;11.30;;;;;;;;;;4994131;28;20195;-79
2022/10/13 06:35:29;;;;;;;14.33;9.93;;;;;;;;;;5007792;28;20230;-79
2022/10/13 06:37:56;;;;;;;18.83;10.40;;;;;;;;;;4999037;28;20176;-79
2022/10/13 06:40:21;;;;;;;13.50;10.17;;;;;;;;;;4998661;28;20235;-79
2022/10/13 06:42:49;;;;;;;16.50;11.20;;;;;;;;;;5010241;28;20184;-79
2022/10/13 06:45:15;;;;;;;14.77;10.63;;;;;;;;;;5022724;28;20193;-79
2022/10/13 06:47:40;;;;;;;11.70;10.50;;;;;;;;;;5002107;28;20200;-79
2022/10/13 06:50:05;;;;;;;13.80;8.77;;;;;;;;;;5004781;28;20307;-79
2022/10/13 06:52:30;;;;;;;15.43;10.70;;;;;;;;;;5031861;28;20180;-79
2022/10/13 06:54:56;;;;;;;12.90;11.00;;;;;;;;;;5025521;28;20227;-79
2022/10/13 06:57:21;;;;;;;18.97;12.17;;;;;;;;;;5039264;28;20223;-79
2022/10/13 06:59:46;;;;;;;15.83;11.60;;;;;;;;;;5036426;28;20178;-79
2022/10/13 07:02:11;;;;;;;17.60;11.93;;;;;;;;;;5029154;28;20235;-79
2022/10/13 07:04:36;;;;;;;19.80;12.33;;;;;;;;;;5038027;28;20505;-79
2022/10/13 07:07:02;;;;;;;20.20;12.57;;;;;;;;;;5029092;28;20465;-79
2022/10/13 07:09:27;;;;;;;17.50;12.27;;;;;;;;;;5030385;28;20205;-79
2022/10/13 07:11:52;;;;;;;19.57;12.20;;;;;;;;;;5025515;28;20179;-79
2022/10/13 07:14:18;;;;;;;18.00;11.77;;;;;;;;;;5040200;28;20231;-79
2022/10/13 07:16:44;;;;;;;16.47;11.77;;;;;;;;;;5032219;28;20176;-79
2022/10/13 07:19:09;;;;;;;13.97;11.83;;;;;;;;;;5030998;28;20192;-79
2022/10/13 07:21:34;;;;;;;19.43;11.60;;;;;;;;;;5027786;28;20210;-79
2022/10/13 07:24:01;;;;;;;19.37;11.33;;;;;;;;;;5029773;28;20185;-79
2022/10/13 07:26:26;;;;;;;14.87;9.97;;;;;;;;;;5032328;28;20212;-79
2022/10/13 07:28:51;;;;;;;12.70;10.27;;;;;;;;;;5031189;28;20238;-79
2022/10/13 07:31:18;;;;;;;15.57;10.90;;;;;;;;;;5012442;28;20201;-79
2022/10/13 07:33:45;;;;;;;15.03;11.00;;;;;;;;;;5031355;28;20209;-79
2022/10/13 07:36:10;;;;;;;14.47;11.00;;;;;;;;;;5029262;28;20179;-79
2022/10/13 07:38:35;;;;;;;16.07;12.27;;;;;;;;;;5031541;28;20239;-79
2022/10/13 07:41:01;;;;;;;13.43;9.97;;;;;;;;;;5027680;28;20182;-79
2022/10/13 07:43:27;;;;;;;18.27;11.43;;;;;;;;;;5030410;28;20195;-79
2022/10/13 07:45:52;;;;;;;15.03;10.30;;;;;;;;;;5025028;28;20294;-79
2022/10/13 07:48:17;;;;;;;18.33;11.77;;;;;;;;;;5025826;28;20206;-79
2022/10/13 07:50:43;;;;;;;13.07;11.13;;;;;;;;;;5030602;28;20223;-80
2022/10/13 07:53:08;;;;;;;17.33;12.53;;;;;;;;;;5031969;28;20194;-79
2022/10/13 07:55:33;;;;;;;15.23;12.00;;;;;;;;;;5030755;28;20270;-79
2022/10/13 07:58:02;;;;;;;16.50;12.53;;;;;;;;;;5029063;28;20187;-79
2022/10/13 08:00:28;;;;;;;21.93;11.47;;;;;;;;;;5025450;28;20260;-79
2022/10/13 08:02:53;;;;;;;15.93;12.43;;;;;;;;;;5027872;28;20617;-79
2022/10/13 08:05:18;;;;;;;16.60;11.23;;;;;;;;;;5035843;28;20175;-79
2022/10/13 08:07:44;;;;;;;16.80;10.97;;;;;;;;;;5033123;28;20182;-79
2022/10/13 08:10:09;;;;;;;14.80;10.43;;;;;;;;;;5031009;28;20216;-79
2022/10/13 08:12:35;;;;;;;15.47;9.87;;;;;;;;;;5032160;28;20184;-79
2022/10/13 08:15:00;;;;;;;13.67;10.60;;;;;;;;;;5023906;28;20215;-79
2022/10/13 08:17:26;;;;;;;16.17;10.50;;;;;;;;;;5030985;28;20244;-80
2022/10/13 08:19:51;;;;;;;13.77;10.23;;;;;;;;;;5030506;28;20179;-79
2022/10/13 08:22:16;;;;;;;12.53;8.83;;;;;;;;;;5029957;28;20180;-79
2022/10/13 08:24:42;;;;;;;11.27;9.80;;;;;;;;;;5014615;28;20265;-79
2022/10/13 08:27:10;;;;;;;19.77;14.73;;;;;;;;;;5051416;28;20185;-80
2022/10/13 08:29:35;;;;;;;10.37;9.27;;;;;;;;;;5028336;28;20263;-80
2022/10/13 08:32:00;;;;;;;21.27;18.07;;;;;;;;;;5027574;28;20296;-79
2022/10/13 08:34:25;;;;;;;13.17;9.10;;;;;;;;;;5029269;28;20281;-79
2022/10/13 08:36:53;;;;;;;11.23;9.77;;;;;;;;;;5031393;28;20181;-79
2022/10/13 08:39:18;;;;;;;11.30;9.40;;;;;;;;;;5031095;28;20189;-79
2022/10/13 08:41:43;;;;;;;12.93;9.33;;;;;;;;;;5031349;28;20209;-80
2022/10/13 08:44:14;;;;;;;13.27;10.53;;;;;;;;;;5028433;28;20208;-79
2022/10/13 08:46:50;;;;;;;12.93;9.33;;;;;;;;;;5025026;28;20205;-80
2022/10/13 08:49:15;;;;;;;11.33;8.90;;;;;;;;;;5031097;28;20303;-80
2022/10/13 08:51:41;;;;;;;9.73;8.17;;;;;;;;;;5028755;28;20264;-80
2022/10/13 08:54:06;;;;;;;10.17;8.70;;;;;;;;;;5030949;28;20269;-80
2022/10/13 08:56:33;;;;;;;9.23;8.07;;;;;;;;;;5024124;28;20204;-79
2022/10/13 08:59:00;;;;;;;11.33;8.30;;;;;;;;;;5030228;28;20190;-80
2022/10/13 09:01:37;;;;;;;15.73;7.57;;;;;;;;;;5029972;28;20479;-80
2022/10/13 09:04:07;;;;;;;15.97;8.77;;;;;;;;;;5028812;28;20200;-80
2022/10/13 09:06:38;;;;;;;10.40;7.93;;;;;;;;;;5024129;28;20175;-80
2022/10/13 09:09:08;;;;;;;8.67;7.43;;;;;;;;;;5029758;28;20213;-80
2022/10/13 09:11:35;;;;;;;10.73;6.80;;;;;;;;;;5025525;28;20185;-80
2022/10/13 09:14:04;;;;;;;10.37;7.70;;;;;;;;;;5047154;28;20194;-80
2022/10/13 09:16:35;;;;;;;9.73;7.73;;;;;;;;;;5027591;28;20274;-80
2022/10/13 09:19:14;;;;;;;9.77;8.03;;;;;;;;;;5033506;28;20253;-80
2022/10/13 09:21:40;;;;;;;9.60;6.87;;;;;;;;;;5017339;28;20206;-80
2022/10/13 09:24:06;;;;;;;9.73;7.07;;;;;;;;;;5031219;28;20185;-80
2022/10/13 09:26:35;;;;;;;8.87;6.57;;;;;;;;;;5021390;28;20199;-80
2022/10/13 09:29:06;;;;;;;7.97;6.43;;;;;;;;;;5027508;28;20206;-80
2022/10/13 09:31:32;;;;;;;7.37;6.37;;;;;;;;;;5025004;28;20260;-80
2022/10/13 09:33:59;;;;;;;9.00;6.57;;;;;;;;;;5027942;28;20176;-80
2022/10/13 09:36:24;;;;;;;7.93;5.87;;;;;;;;;;5026471;28;20171;-80
2022/10/13 09:39:08;;;;;;;13.53;8.90;;;;;;;;;;5023433;28;20359;-80
2022/10/13 09:41:34;;;;;;;11.53;6.87;;;;;;;;;;5006349;28;20191;-80
2022/10/13 09:44:04;;;;;;;8.37;5.90;;;;;;;;;;5011884;28;20183;-80
2022/10/13 09:46:52;;;;;;;8.93;6.47;;;;;;;;;;5029383;28;20199;-80
2022/10/13 09:49:28;;;;;;;7.87;6.77;;;;;;;;;;5024892;28;20247;-80
2022/10/13 09:51:57;;;;;;;7.73;6.10;;;;;;;;;;5029606;28;20193;-80
2022/10/13 09:54:43;;;;;;;7.53;6.30;;;;;;;;;;5029687;28;20182;-80
2022/10/13 09:57:17;;;;;;;8.53;6.17;;;;;;;;;;5027901;28;20189;-80
2022/10/13 09:59:57;;;;;;;6.23;5.63;;;;;;;;;;5042225;28;20198;-80
2022/10/13 10:02:25;;;;;;;6.07;5.47;;;;;;;;;;5035232;28;20265;-81
2022/10/13 10:04:52;;;;;;;7.30;4.97;;;;;;;;;;5027357;28;20237;-80
2022/10/13 10:07:20;;;;;;;6.30;5.47;;;;;;;;;;5029098;28;20221;-80
2022/10/13 10:09:47;;;;;;;6.73;5.83;;;;;;;;;;5026698;28;20205;-80
2022/10/13 10:12:16;;;;;;;7.30;6.50;;;;;;;;;;5032072;28;20262;-80
2022/10/13 10:14:42;;;;;;;33.20;21.53;;;;;;;;;;5033985;28;20182;-81
2022/10/13 10:17:16;;;;;;;6.50;5.83;;;;;;;;;;5032852;28;20199;-80
2022/10/13 10:20:00;;;;;;;10.77;7.10;;;;;;;;;;5033135;28;20181;-80
2022/10/13 10:22:44;;;;;;;10.97;8.70;;;;;;;;;;5004623;28;20187;-80
2022/10/13 10:25:44;;;;;;;6.60;5.87;;;;;;;;;;5016985;28;20190;-81
2022/10/13 10:28:28;;;;;;;6.57;5.57;;;;;;;;;;4959506;28;20184;-80
2022/10/13 10:31:05;;;;;;;8.93;5.83;;;;;;;;;;4959643;28;20193;-80
2022/10/13 10:33:33;;;;;;;13.00;6.90;;;;;;;;;;4983287;28;20226;-80
2022/10/13 10:36:03;;;;;;;11.00;6.63;;;;;;;;;;4985151;28;20260;-80
2022/10/13 10:38:41;;;;;;;6.77;5.57;;;;;;;;;;4957199;28;20180;-80
2022/10/13 10:41:25;;;;;;;7.63;6.83;;;;;;;;;;4959349;28;20185;-81
2022/10/13 10:43:55;;;;;;;10.47;7.33;;;;;;;;;;4968226;28;20192;-80
2022/10/13 10:46:26;;;;;;;6.60;5.93;;;;;;;;;;4956811;28;20233;-80
2022/10/13 10:48:55;;;;;;;9.57;6.00;;;;;;;;;;4953419;28;20313;-80
2022/10/13 10:51:24;;;;;;;14.77;10.53;;;;;;;;;;4958860;28;20279;-80
2022/10/13 10:54:08;;;;;;;8.77;6.13;;;;;;;;;;4969603;28;20197;-81
2022/10/13 10:56:37;;;;;;;10.37;6.60;;;;;;;;;;4953794;28;20198;-80
2022/10/13 10:59:21;;;;;;;9.50;6.03;;;;;;;;;;4953230;29;20186;-80
2022/10/13 11:02:05;;;;;;;8.37;6.40;;;;;;;;;;4969691;28;20278;-80
2022/10/13 11:04:37;;;;;;;11.73;7.37;;;;;;;;;;5015014;28;20228;-80
2022/10/13 11:07:03;;;;;;;10.10;5.93;;;;;;;;;;5017335;28;20178;-80
2022/10/13 11:09:40;;;;;;;9.63;6.87;;;;;;;;;;5019035;28;20223;-80
2022/10/13 11:12:18;;;;;;;10.80;7.33;;;;;;;;;;5014935;28;20191;-81
2022/10/13 11:14:44;;;;;;;11.40;7.37;;;;;;;;;;5015326;28;20280;-81
2022/10/13 11:17:15;;;;;;;12.67;6.40;;;;;;;;;;5011141;28;20187;-81
2022/10/13 11:19:41;;;;;;;8.30;6.27;;;;;;;;;;5026585;28;20179;-81
2022/10/13 11:22:06;;;;;;;7.63;6.23;;;;;;;;;;5014509;28;20184;-81
2022/10/13 11:24:40;;;;;;;12.63;9.57;;;;;;;;;;5017131;28;20257;-81
2022/10/13 11:27:09;;;;;;;8.93;7.87;;;;;;;;;;5002013;28;20191;-88
2022/10/13 11:29:51;;;;;;;10.67;8.87;;;;;;;;;;5006293;28;20295;-87
2022/10/13 11:35:05;;;;;;;11.70;7.93;;;;;;;;;;5027129;28;20193;-83
2022/10/13 11:37:33;;;;;;;9.50;7.00;;;;;;;;;;5020050;28;20187;-87
2022/10/13 11:40:03;;;;;;;9.83;7.37;;;;;;;;;;5014612;28;20177;-88
2022/10/13 11:42:28;;;;;;;13.27;7.77;;;;;;;;;;5012783;28;20181;-88
2022/10/13 11:45:12;;;;;;;10.67;6.63;;;;;;;;;;5013990;28;20182;-85
2022/10/13 11:47:52;;;;;;;9.77;6.87;;;;;;;;;;5011799;28;20205;-83
2022/10/13 11:50:36;;;;;;;9.07;6.70;;;;;;;;;;4963419;28;1117563;-86
2022/10/13 11:53:05;;;;;;;8.93;5.30;;;;;;;;;;5011092;28;20202;-86
2022/10/13 11:55:56;;;;;;;8.50;5.17;;;;;;;;;;4995562;28;20184;-87
2022/10/13 11:58:26;;;;;;;7.30;4.97;;;;;;;;;;4981284;28;20189;-87
2022/10/13 12:00:56;;;;;;;7.87;5.60;;;;;;;;;;4997302;28;20185;-88
2022/10/13 12:03:28;;;;;;;5.73;4.57;;;;;;;;;;4998105;28;20218;-87
2022/10/13 12:06:13;;;;;;;13.37;11.00;;;;;;;;;;5001693;28;20253;-87
2022/10/13 12:08:38;;;;;;;31.83;28.60;;;;;;;;;;5009146;28;20279;-86
2022/10/13 12:11:06;;;;;;;7.90;5.27;;;;;;;;;;4993488;28;20316;-88
2022/10/13 12:13:32;;;;;;;6.37;5.20;;;;;;;;;;4995668;28;20185;-88
2022/10/13 12:15:59;;;;;;;7.33;5.37;;;;;;;;;;5010220;28;20188;-88
2022/10/13 12:18:25;;;;;;;5.57;4.77;;;;;;;;;;4994045;28;20188;-88
2022/10/13 12:20:55;;;;;;;6.07;4.93;;;;;;;;;;5009975;28;20260;-88
2022/10/13 12:23:20;;;;;;;13.57;5.67;;;;;;;;;;4997321;28;20305;-89
2022/10/13 12:25:46;;;;;;;8.57;5.43;;;;;;;;;;4998508;28;20261;-87
2022/10/13 12:28:17;;;;;;;11.37;6.47;;;;;;;;;;4999917;28;20190;-88
2022/10/13 12:30:50;;;;;;;10.87;6.43;;;;;;;;;;4989358;28;20210;-88
2022/10/13 12:33:25;;;;;;;6.40;5.80;;;;;;;;;;4993813;28;20190;-88
2022/10/13 12:35:50;;;;;;;7.30;5.50;;;;;;;;;;4993788;28;20201;-90
2022/10/13 12:38:19;;;;;;;6.67;5.33;;;;;;;;;;4990438;28;20194;-88
2022/10/13 12:40:48;;;;;;;8.33;6.37;;;;;;;;;;4996352;28;20210;-89
2022/10/13 12:43:26;;;;;;;9.60;6.17;;;;;;;;;;5004530;28;20206;-87
2022/10/13 12:45:51;;;;;;;7.53;5.83;;;;;;;;;;4994117;28;20211;-86
2022/10/13 12:48:35;;;;;;;7.03;5.77;;;;;;;;;;4997037;28;20201;-88
2022/10/13 12:51:08;;;;;;;6.83;5.90;;;;;;;;;;4984399;28;20232;-87
2022/10/13 12:53:53;;;;;;;6.33;5.73;;;;;;;;;;4991697;28;20279;-87
2022/10/13 12:56:24;;;;;;;6.93;6.27;;;;;;;;;;4994670;28;20185;-86
2022/10/13 12:58:49;;;;;;;7.43;5.77;;;;;;;;;;4995682;28;20191;-86
2022/10/13 13:01:14;;;;;;;7.40;6.70;;;;;;;;;;4997834;28;20194;-87
2022/10/13 13:03:41;;;;;;;7.87;6.33;;;;;;;;;;5011426;28;20183;-86
2022/10/13 13:06:09;;;;;;;6.70;6.00;;;;;;;;;;4991819;28;20227;-86
2022/10/13 13:08:34;;;;;;;9.67;6.47;;;;;;;;;;4993019;28;20293;-87
2022/10/13 13:11:00;;;;;;;10.80;6.90;;;;;;;;;;4994285;28;20263;-86
2022/10/13 13:13:25;;;;;;;7.33;6.63;;;;;;;;;;5006130;28;20182;-87
2022/10/13 13:15:51;;;;;;;8.53;6.20;;;;;;;;;;5002967;28;20175;-88
2022/10/13 13:18:23;;;;;;;8.77;7.37;;;;;;;;;;4999264;28;20183;-87
2022/10/13 13:20:48;;;;;;;10.80;6.83;;;;;;;;;;5004679;28;20176;-88
2022/10/13 13:23:17;;;;;;;7.07;6.03;;;;;;;;;;4991874;28;20180;-87
2022/10/13 13:25:42;;;;;;;12.20;6.50;;;;;;;;;;4996355;28;20242;-88
2022/10/13 13:28:12;;;;;;;8.40;6.63;;;;;;;;;;4998321;28;20181;-88
2022/10/13 13:30:37;;;;;;;12.37;7.40;;;;;;;;;;4989576;28;20182;-87
2022/10/13 13:33:02;;;;;;;11.63;6.50;;;;;;;;;;4998657;28;20184;-88
2022/10/13 13:35:27;;;;;;;6.40;5.80;;;;;;;;;;4993577;28;20204;-88
2022/10/13 13:37:53;;;;;;;10.07;6.33;;;;;;;;;;4995190;28;20177;-87
2022/10/13 13:40:19;;;;;;;11.50;6.33;;;;;;;;;;4993843;28;20185;-86
2022/10/13 13:42:45;;;;;;;10.20;5.43;;;;;;;;;;5000392;28;20212;-86
2022/10/13 13:45:14;;;;;;;11.63;6.97;;;;;;;;;;4993297;28;20203;-88
2022/10/13 13:47:39;;;;;;;11.30;6.93;;;;;;;;;;4995856;28;20275;-89
2022/10/13 13:50:08;;;;;;;8.13;5.87;;;;;;;;;;4995334;28;20327;-87
2022/10/13 13:52:34;;;;;;;10.57;5.70;;;;;;;;;;5018054;28;20197;-87
2022/10/13 13:54:59;;;;;;;11.73;7.03;;;;;;;;;;4990675;28;20405;-87
2022/10/13 13:57:24;;;;;;;10.70;6.40;;;;;;;;;;4992147;28;20183;-89
2022/10/13 13:59:49;;;;;;;8.03;6.23;;;;;;;;;;4991759;28;20171;-87
2022/10/13 14:02:19;;;;;;;8.27;7.00;;;;;;;;;;5007296;28;20256;-85
2022/10/13 14:04:46;;;;;;;10.07;6.90;;;;;;;;;;5012463;28;20186;-87
2022/10/13 14:07:12;;;;;;;11.43;6.37;;;;;;;;;;5004189;28;20175;-86
2022/10/13 14:09:37;;;;;;;24.27;12.07;;;;;;;;;;5002641;28;20220;-86
2022/10/13 14:12:02;;;;;;;9.27;6.20;;;;;;;;;;4997867;28;20173;-87
2022/10/13 14:14:31;;;;;;;7.47;6.63;;;;;;;;;;4991662;28;20172;-87
2022/10/13 14:16:57;;;;;;;7.83;5.90;;;;;;;;;;5001895;28;20210;-86
2022/10/13 14:19:22;;;;;;;10.03;6.83;;;;;;;;;;4988236;28;20183;-87
2022/10/13 14:21:47;;;;;;;7.93;5.73;;;;;;;;;;4986843;28;20297;-88
2022/10/13 14:24:13;;;;;;;7.07;5.77;;;;;;;;;;4996027;28;20260;-88
2022/10/13 14:26:38;;;;;;;9.97;6.40;;;;;;;;;;5000555;28;20182;-87
2022/10/13 14:29:03;;;;;;;11.63;5.60;;;;;;;;;;4990670;28;20206;-85
2022/10/13 14:31:29;;;;;;;8.80;6.33;;;;;;;;;;4990779;28;20189;-87
2022/10/13 14:33:54;;;;;;;11.10;5.67;;;;;;;;;;4994018;28;20172;-88
2022/10/13 14:36:20;;;;;;;7.80;5.97;;;;;;;;;;4997145;28;20179;-86